createdAt,value
2023-04-07T00:01:09.722Z,57.30
2023-04-07T00:03:39.160Z,57.50
2023-04-07T00:06:10.554Z,57.30
2023-04-07T00:08:38.088Z,57.20
2023-04-07T00:11:17.222Z,57.60
2023-04-07T00:13:45.284Z,57.60
2023-04-07T00:16:20.420Z,57.30
2023-04-07T00:18:48.105Z,57.50
2023-04-07T00:21:16.456Z,57.50
2023-04-07T00:23:43.969Z,57.60
2023-04-07T00:26:14.714Z,57.60
2023-04-07T00:28:42.821Z,57.60
2023-04-07T00:31:10.641Z,57.70
2023-04-07T00:33:38.422Z,57.80
2023-04-07T00:36:07.191Z,57.80
2023-04-07T00:38:35.114Z,57.80
2023-04-07T00:41:02.898Z,57.80
2023-04-07T00:43:30.517Z,57.80
2023-04-07T00:45:58.325Z,57.80
2023-04-07T00:48:25.757Z,57.80
2023-04-07T00:50:54.566Z,58.00
2023-04-07T00:53:22.124Z,58.10
2023-04-07T00:55:50.221Z,58.10
2023-04-07T00:58:17.935Z,58.00
2023-04-07T01:00:58.643Z,58.50
2023-04-07T01:03:33.211Z,57.90
2023-04-07T01:06:03.239Z,58.20
2023-04-07T01:08:40.978Z,58.00
2023-04-07T01:11:33.851Z,58.40
2023-04-07T01:14:01.660Z,58.50
2023-04-07T01:16:38.024Z,59.00
2023-04-07T01:19:24.745Z,58.30
2023-04-07T01:21:58.552Z,58.30
2023-04-07T01:24:47.411Z,58.40
2023-04-07T01:27:28.302Z,58.50
2023-04-07T01:32:38.312Z,58.60
2023-04-07T01:35:09.174Z,58.90
2023-04-07T01:37:39.369Z,59.30
2023-04-07T01:40:09.240Z,59.30
2023-04-07T01:42:39.876Z,59.30
2023-04-07T01:45:09.635Z,59.20
2023-04-07T01:47:39.509Z,59.20
2023-04-07T01:50:12.471Z,59.30
2023-04-07T01:52:41.244Z,59.40
2023-04-07T01:55:11.168Z,59.40
2023-04-07T01:57:40.712Z,59.50
2023-04-07T02:00:11.314Z,59.60
2023-04-07T02:02:49.526Z,59.70
2023-04-07T02:05:21.002Z,59.70
2023-04-07T02:07:55.612Z,59.40
2023-04-07T02:10:25.936Z,59.50
2023-04-07T02:12:55.750Z,59.60
2023-04-07T02:15:24.515Z,59.70
2023-04-07T02:17:54.176Z,60.00
2023-04-07T02:20:23.038Z,60.30
2023-04-07T02:22:51.074Z,60.00
2023-04-07T02:25:30.698Z,60.00
2023-04-07T02:28:00.316Z,60.30
2023-04-07T02:30:29.268Z,60.30
2023-04-07T02:32:57.181Z,60.30
2023-04-07T02:35:24.882Z,60.00
2023-04-07T02:37:52.613Z,59.90
2023-04-07T02:40:20.416Z,61.20
2023-04-07T02:42:47.946Z,60.30
2023-04-07T02:45:17.585Z,60.60
2023-04-07T02:47:45.234Z,60.30
2023-04-07T02:50:13.147Z,60.40
2023-04-07T02:52:40.613Z,60.30
2023-04-07T02:55:10.748Z,60.30
2023-04-07T02:57:38.630Z,60.50
2023-04-07T03:00:09.591Z,60.50
2023-04-07T03:02:48.312Z,60.60
2023-04-07T03:05:16.746Z,60.90
2023-04-07T03:07:45.051Z,60.80
2023-04-07T03:10:12.840Z,60.90
2023-04-07T03:12:40.559Z,61.00
2023-04-07T03:15:09.205Z,61.20
2023-04-07T03:17:37.039Z,61.00
2023-04-07T03:20:07.006Z,60.90
2023-04-07T03:22:37.552Z,60.80
2023-04-07T03:25:07.064Z,61.00
2023-04-07T03:27:35.136Z,61.10
2023-04-07T03:30:03.458Z,61.70
2023-04-07T03:32:31.128Z,61.80
2023-04-07T03:34:59.285Z,61.90
2023-04-07T03:37:27.019Z,61.50
2023-04-07T03:39:56.888Z,61.00
2023-04-07T03:42:26.651Z,61.40
2023-04-07T03:44:56.319Z,61.70
2023-04-07T03:47:24.306Z,62.10
2023-04-07T03:52:40.106Z,62.50
2023-04-07T03:55:11.570Z,62.30
2023-04-07T03:57:41.222Z,62.30
2023-04-07T04:00:10.989Z,62.30
2023-04-07T04:02:44.212Z,62.00
2023-04-07T04:05:14.048Z,62.20
2023-04-07T04:07:41.424Z,61.90
2023-04-07T04:10:10.032Z,63.30
2023-04-07T04:12:39.475Z,62.40
2023-04-07T04:15:10.181Z,62.60
2023-04-07T04:17:38.215Z,62.50
2023-04-07T04:20:07.248Z,62.70
2023-04-07T04:22:59.421Z,62.60
2023-04-07T04:25:27.049Z,62.10
2023-04-07T04:27:56.341Z,62.00
2023-04-07T04:30:25.851Z,62.10
2023-04-07T04:32:55.826Z,62.10
2023-04-07T04:35:35.454Z,62.30
2023-04-07T04:38:07.389Z,62.60
2023-04-07T04:40:36.105Z,62.60
2023-04-07T04:43:09.758Z,62.50
2023-04-07T04:45:38.498Z,62.70
2023-04-07T04:48:11.394Z,62.50
2023-04-07T04:50:40.247Z,62.40
2023-04-07T04:53:10.355Z,62.10
2023-04-07T04:58:34.180Z,62.00
2023-04-07T05:01:01.960Z,62.00
2023-04-07T05:03:31.664Z,62.40
2023-04-07T05:06:01.012Z,62.70
2023-04-07T05:08:28.804Z,62.50
2023-04-07T05:10:58.566Z,62.20
2023-04-07T05:13:27.963Z,62.30
2023-04-07T05:15:56.644Z,62.70
2023-04-07T05:18:24.405Z,62.60
2023-04-07T05:20:52.631Z,62.70
2023-04-07T05:23:21.645Z,62.80
2023-04-07T05:25:50.989Z,62.90
2023-04-07T05:28:19.553Z,62.80
2023-04-07T05:30:49.097Z,62.60
2023-04-07T05:33:17.138Z,62.50
2023-04-07T05:35:46.433Z,62.50
2023-04-07T05:38:14.740Z,62.70
2023-04-07T05:40:42.711Z,62.40
2023-04-07T05:43:12.356Z,62.50
2023-04-07T05:45:40.019Z,62.40
2023-04-07T05:48:07.966Z,62.60
2023-04-07T05:53:19.230Z,62.60
2023-04-07T05:56:07.027Z,64.90
2023-04-07T05:58:36.485Z,64.00
2023-04-07T06:01:04.715Z,63.40
2023-04-07T06:03:32.957Z,63.30
2023-04-07T06:06:02.804Z,63.10
2023-04-07T06:08:30.519Z,62.50
2023-04-07T06:10:59.033Z,62.60
2023-04-07T06:13:27.582Z,62.80
2023-04-07T06:15:56.829Z,63.00
2023-04-07T06:18:25.733Z,63.00
2023-04-07T06:20:53.371Z,63.00
2023-04-07T06:23:20.804Z,63.10
2023-04-07T06:25:49.996Z,64.50
2023-04-07T06:28:17.648Z,64.00
2023-04-07T06:33:40.650Z,65.90
2023-04-07T06:36:11.514Z,65.80
2023-04-07T06:39:03.449Z,65.10
2023-04-07T06:41:31.973Z,63.30
2023-04-07T06:44:00.198Z,62.30
2023-04-07T06:46:27.893Z,62.00
2023-04-07T06:48:55.817Z,63.10
2023-04-07T06:51:23.678Z,63.70
2023-04-07T06:53:51.889Z,64.40
2023-04-07T06:56:19.675Z,62.90
2023-04-07T06:58:48.911Z,63.20
2023-04-07T07:01:17.126Z,63.80
2023-04-07T07:03:44.990Z,63.70
2023-04-07T07:06:13.137Z,63.30
2023-04-07T07:08:41.030Z,62.80
2023-04-07T07:11:08.410Z,62.60
2023-04-07T07:13:38.054Z,62.00
2023-04-07T07:16:06.757Z,61.30
2023-04-07T07:18:34.221Z,60.60
2023-04-07T07:21:02.409Z,58.50
2023-04-07T07:23:33.414Z,58.40
2023-04-07T07:26:01.872Z,56.90
2023-04-07T07:28:32.779Z,56.20
2023-04-07T07:31:00.412Z,56.10
2023-04-07T07:33:28.088Z,55.70
2023-04-07T07:35:55.560Z,56.10
2023-04-07T07:38:24.586Z,55.70
2023-04-07T07:40:52.844Z,55.60
2023-04-07T07:43:35.379Z,55.30
2023-04-07T07:46:03.635Z,55.40
2023-04-07T07:48:31.441Z,54.10
2023-04-07T07:50:59.135Z,54.20
2023-04-07T07:53:26.876Z,54.30
2023-04-07T07:55:56.362Z,53.50
2023-04-07T07:58:25.608Z,53.00
2023-04-07T08:00:53.511Z,52.20
2023-04-07T08:03:30.042Z,52.60
2023-04-07T08:05:58.431Z,53.00
2023-04-07T08:08:27.442Z,53.20
2023-04-07T08:10:55.009Z,52.00
2023-04-07T08:13:45.773Z,51.70
2023-04-07T08:16:14.829Z,51.60
2023-04-07T08:18:42.517Z,51.50
2023-04-07T08:21:11.366Z,51.50
2023-04-07T08:23:40.763Z,51.70
2023-04-07T08:26:08.826Z,51.80
2023-04-07T08:28:37.240Z,51.60
2023-04-07T08:31:05.010Z,51.70
2023-04-07T08:33:35.637Z,51.30
2023-04-07T08:36:03.515Z,51.30
2023-04-07T08:38:34.899Z,51.60
2023-04-07T08:41:13.447Z,51.70
2023-04-07T08:43:47.170Z,51.80
2023-04-07T08:46:17.688Z,51.60
2023-04-07T08:48:45.119Z,51.40
2023-04-07T08:51:15.193Z,51.00
2023-04-07T08:53:46.693Z,51.40
2023-04-07T08:56:15.580Z,51.70
2023-04-07T08:58:51.444Z,52.20
2023-04-07T09:01:31.297Z,51.90
2023-04-07T09:03:59.973Z,52.20
2023-04-07T09:06:28.609Z,52.10
2023-04-07T09:08:56.287Z,52.50
2023-04-07T09:11:24.230Z,52.50
2023-04-07T09:13:51.946Z,51.80
2023-04-07T09:16:20.693Z,51.50
2023-04-07T09:18:50.532Z,51.60
2023-04-07T09:21:20.522Z,52.50
2023-04-07T09:23:48.600Z,53.80
2023-04-07T09:26:25.355Z,53.90
2023-04-07T09:28:56.887Z,54.00
2023-04-07T09:31:27.279Z,54.80
2023-04-07T09:33:55.767Z,54.60
2023-04-07T09:36:25.528Z,55.20
2023-04-07T09:38:53.859Z,54.20
2023-04-07T09:41:21.897Z,53.20
2023-04-07T09:43:53.683Z,53.00
2023-04-07T09:46:21.319Z,51.80
2023-04-07T09:48:48.742Z,51.30
2023-04-07T09:51:18.301Z,51.60
2023-04-07T09:53:52.884Z,52.50
2023-04-07T09:56:22.769Z,53.50
2023-04-07T09:58:54.734Z,52.90
2023-04-07T10:01:22.925Z,53.00
2023-04-07T10:03:52.056Z,51.70
2023-04-07T10:06:21.128Z,51.00
2023-04-07T10:08:50.278Z,51.60
2023-04-07T10:11:19.242Z,51.30
2023-04-07T10:13:47.217Z,50.80
2023-04-07T10:16:15.907Z,50.60
2023-04-07T10:18:47.438Z,51.30
2023-04-07T10:21:17.273Z,51.20
2023-04-07T10:24:02.720Z,51.00
2023-04-07T10:26:34.228Z,50.30
2023-04-07T10:29:05.774Z,51.10
2023-04-07T10:31:34.267Z,52.30
2023-04-07T10:34:03.074Z,51.80
2023-04-07T10:36:30.952Z,51.70
2023-04-07T10:39:11.883Z,52.20
2023-04-07T10:41:42.787Z,51.70
2023-04-07T10:44:14.599Z,50.90
2023-04-07T10:46:55.601Z,50.70
2023-04-07T10:49:23.832Z,51.00
2023-04-07T10:52:15.751Z,51.20
2023-04-07T10:54:51.052Z,49.70
2023-04-07T10:57:18.776Z,50.60
2023-04-07T11:00:13.528Z,49.70
2023-04-07T11:02:52.223Z,49.70
2023-04-07T11:05:24.187Z,49.80
2023-04-07T11:07:55.437Z,49.80
2023-04-07T11:10:23.512Z,50.40
2023-04-07T11:13:06.607Z,51.10
2023-04-07T11:15:40.472Z,51.20
2023-04-07T11:18:19.389Z,49.90
2023-04-07T11:20:53.725Z,50.80
2023-04-07T11:23:24.158Z,51.60
2023-04-07T11:25:53.780Z,54.40
2023-04-07T11:28:21.772Z,53.10
2023-04-07T11:30:55.040Z,52.10
2023-04-07T11:33:26.139Z,49.50
2023-04-07T11:35:59.755Z,48.20
2023-04-07T11:38:29.005Z,49.40
2023-04-07T11:40:57.434Z,49.00
2023-04-07T11:43:27.260Z,48.90
2023-04-07T11:46:09.674Z,46.60
2023-04-07T11:48:39.543Z,46.40
2023-04-07T11:51:08.022Z,46.70
2023-04-07T11:53:39.254Z,46.60
2023-04-07T11:56:10.695Z,47.20
2023-04-07T11:58:39.054Z,47.60
2023-04-07T12:01:09.306Z,47.70
2023-04-07T12:03:38.213Z,48.00
2023-04-07T12:06:06.935Z,47.70
2023-04-07T12:08:38.926Z,48.70
2023-04-07T12:11:07.317Z,48.80
2023-04-07T12:13:35.890Z,49.20
2023-04-07T12:16:03.451Z,49.70
2023-04-07T12:18:31.728Z,49.50
2023-04-07T12:20:59.438Z,49.10
2023-04-07T12:23:27.057Z,49.00
2023-04-07T12:25:55.082Z,49.40
2023-04-07T12:28:22.789Z,49.50
2023-04-07T12:30:50.689Z,50.10
2023-04-07T12:33:17.998Z,50.50
2023-04-07T12:35:45.942Z,50.10
2023-04-07T12:38:14.033Z,50.50
2023-04-07T12:40:43.637Z,50.00
2023-04-07T12:43:13.403Z,49.70
2023-04-07T12:45:41.162Z,48.70
2023-04-07T12:48:08.856Z,49.50
2023-04-07T12:50:55.995Z,50.20
2023-04-07T12:53:23.679Z,50.40
2023-04-07T12:55:51.497Z,49.80
2023-04-07T12:58:19.560Z,49.00
2023-04-07T13:00:50.765Z,49.00
2023-04-07T13:03:18.983Z,49.30
2023-04-07T13:05:47.043Z,49.30
2023-04-07T13:08:15.127Z,48.90
2023-04-07T13:10:43.142Z,49.50
2023-04-07T13:13:11.150Z,50.10
2023-04-07T13:15:38.762Z,49.30
2023-04-07T13:18:06.988Z,49.20
2023-04-07T13:20:36.125Z,49.50
2023-04-07T13:23:08.368Z,49.80
2023-04-07T13:25:33.699Z,50.00
2023-04-07T13:28:01.837Z,49.10
2023-04-07T13:30:29.813Z,48.70
2023-04-07T13:32:58.013Z,48.70
2023-04-07T13:35:26.120Z,49.20
2023-04-07T13:40:40.383Z,50.10
2023-04-07T13:43:08.809Z,50.00
2023-04-07T13:45:35.974Z,50.20
2023-04-07T13:48:07.420Z,50.20
2023-04-07T13:50:37.565Z,50.40
2023-04-07T13:53:05.303Z,50.30
2023-04-07T13:55:33.403Z,50.50
2023-04-07T13:58:01.517Z,50.00
2023-04-07T14:00:28.983Z,49.70
2023-04-07T14:02:57.740Z,49.60
2023-04-07T14:05:25.391Z,50.00
2023-04-07T14:07:55.627Z,50.40
2023-04-07T14:10:23.475Z,50.20
2023-04-07T14:12:51.868Z,50.90
2023-04-07T14:15:20.332Z,50.10
2023-04-07T14:17:48.514Z,49.70
2023-04-07T14:20:16.491Z,48.70
2023-04-07T14:22:44.986Z,48.90
2023-04-07T14:25:12.646Z,49.50
2023-04-07T14:27:40.687Z,49.80
2023-04-07T14:30:16.673Z,49.80
2023-04-07T14:32:44.244Z,49.70
2023-04-07T14:35:12.078Z,49.70
2023-04-07T14:37:39.698Z,49.70
2023-04-07T14:40:08.732Z,49.10
2023-04-07T14:42:37.130Z,49.50
2023-04-07T14:45:06.278Z,48.90
2023-04-07T14:47:33.888Z,48.80
2023-04-07T14:50:01.877Z,48.70
2023-04-07T14:52:30.610Z,49.20
2023-04-07T14:55:00.275Z,50.70
2023-04-07T14:57:28.318Z,50.40
2023-04-07T14:59:55.678Z,50.40
2023-04-07T15:02:23.968Z,50.00
2023-04-07T15:04:51.875Z,49.90
2023-04-07T15:07:19.915Z,50.30
2023-04-07T15:09:48.335Z,50.30
2023-04-07T15:12:16.285Z,50.70
2023-04-07T15:14:45.022Z,49.90
2023-04-07T15:17:13.510Z,49.90
2023-04-07T15:19:46.405Z,50.20
2023-04-07T15:22:14.042Z,50.60
2023-04-07T15:24:41.537Z,50.70
2023-04-07T15:27:10.004Z,50.70
2023-04-07T15:29:39.097Z,50.30
2023-04-07T15:32:06.642Z,50.00
2023-04-07T15:34:38.109Z,50.20
2023-04-07T15:37:06.118Z,50.80
2023-04-07T15:39:33.875Z,51.20
2023-04-07T15:42:01.855Z,51.10
2023-04-07T15:44:31.477Z,51.20
2023-04-07T15:46:59.217Z,51.20
2023-04-07T15:49:27.359Z,51.20
2023-04-07T15:51:55.021Z,50.80
2023-04-07T15:54:22.908Z,50.90
2023-04-07T15:56:50.364Z,50.90
2023-04-07T15:59:19.138Z,50.70
2023-04-07T16:01:46.630Z,50.40
2023-04-07T16:04:15.435Z,50.50
2023-04-07T16:06:43.848Z,50.80
2023-04-07T16:09:11.590Z,51.00
2023-04-07T16:11:39.255Z,51.20
2023-04-07T16:14:09.097Z,51.00
2023-04-07T16:16:37.330Z,50.00
2023-04-07T16:19:05.208Z,50.20
2023-04-07T16:21:33.117Z,50.40
2023-04-07T16:24:00.977Z,50.60
2023-04-07T16:26:28.487Z,50.70
2023-04-07T16:28:56.639Z,50.50
2023-04-07T16:31:24.089Z,50.50
2023-04-07T16:33:51.940Z,50.80
2023-04-07T16:36:21.282Z,52.10
2023-04-07T16:38:50.950Z,51.70
2023-04-07T16:41:19.884Z,52.00
2023-04-07T16:43:48.117Z,52.40
2023-04-07T16:46:16.368Z,52.80
2023-04-07T16:48:48.281Z,53.40
2023-04-07T16:51:19.667Z,53.60
2023-04-07T16:53:48.242Z,54.20
2023-04-07T16:56:18.682Z,54.60
2023-04-07T16:58:46.598Z,54.70
2023-04-07T17:01:14.722Z,54.90
2023-04-07T17:03:42.693Z,55.00
2023-04-07T17:06:10.945Z,55.20
2023-04-07T17:08:49.789Z,55.20
2023-04-07T17:11:17.666Z,55.50
2023-04-07T17:13:45.086Z,55.50
2023-04-07T17:16:16.867Z,56.10
2023-04-07T17:18:44.456Z,56.70
2023-04-07T17:21:12.548Z,57.00
2023-04-07T17:23:40.887Z,57.20
2023-04-07T17:26:08.645Z,57.70
2023-04-07T17:28:56.040Z,58.20
2023-04-07T17:31:23.527Z,58.40
2023-04-07T17:33:52.262Z,58.60
2023-04-07T17:36:20.280Z,59.00
2023-04-07T17:38:49.458Z,60.10
2023-04-07T17:41:16.762Z,60.30
2023-04-07T17:43:45.549Z,60.60
2023-04-07T17:46:13.990Z,60.60
2023-04-07T17:48:46.590Z,60.60
2023-04-07T17:51:14.544Z,61.20
2023-04-07T17:53:43.085Z,61.70
2023-04-07T17:56:11.496Z,62.10
2023-04-07T17:58:43.174Z,62.70
2023-04-07T18:01:11.594Z,62.10
2023-04-07T18:03:39.404Z,62.10
2023-04-07T18:06:08.710Z,62.10
2023-04-07T18:08:36.831Z,61.80
2023-04-07T18:11:06.521Z,61.60
2023-04-07T18:13:34.570Z,61.90
2023-04-07T18:16:02.892Z,62.40
2023-04-07T18:18:31.294Z,62.50
2023-04-07T18:20:58.988Z,62.00
2023-04-07T18:23:26.830Z,61.90
2023-04-07T18:25:54.458Z,62.20
2023-04-07T18:28:22.105Z,61.90
2023-04-07T18:30:50.277Z,62.20
2023-04-07T18:33:37.503Z,64.40
2023-04-07T18:36:08.020Z,63.00
2023-04-07T18:38:38.274Z,62.20
2023-04-07T18:41:09.155Z,61.80
2023-04-07T18:43:37.173Z,62.00
2023-04-07T18:46:04.720Z,62.20
2023-04-07T18:48:32.693Z,62.50
2023-04-07T18:51:00.390Z,63.00
2023-04-07T18:53:27.919Z,62.60
2023-04-07T18:55:55.736Z,62.50
2023-04-07T18:58:25.044Z,62.50
2023-04-07T19:00:54.728Z,62.30
2023-04-07T19:03:23.155Z,62.60
2023-04-07T19:05:52.704Z,62.30
2023-04-07T19:08:20.660Z,62.40
2023-04-07T19:10:49.852Z,62.50
2023-04-07T19:13:25.459Z,62.90
2023-04-07T19:15:56.720Z,62.90
2023-04-07T19:18:24.866Z,62.90
2023-04-07T19:20:53.087Z,62.70
2023-04-07T19:23:20.701Z,62.50
2023-04-07T19:25:48.814Z,63.10
2023-04-07T19:28:16.844Z,64.90
2023-04-07T19:30:44.830Z,64.80
2023-04-07T19:33:13.045Z,66.10
2023-04-07T19:35:40.701Z,65.40
2023-04-07T19:38:08.349Z,65.70
2023-04-07T19:40:36.893Z,66.00
2023-04-07T19:43:04.703Z,66.60
2023-04-07T19:45:32.452Z,66.90
2023-04-07T19:48:00.829Z,67.20
2023-04-07T19:50:28.474Z,67.40
2023-04-07T19:52:55.760Z,68.20
2023-04-07T19:55:23.799Z,68.00
2023-04-07T19:57:51.732Z,66.60
2023-04-07T20:00:19.538Z,66.60
2023-04-07T20:02:50.849Z,66.50
2023-04-07T20:05:19.965Z,65.80
2023-04-07T20:07:51.050Z,65.80
2023-04-07T20:10:18.718Z,66.00
2023-04-07T20:12:46.326Z,67.80
2023-04-07T20:15:14.657Z,67.20
2023-04-07T20:17:42.315Z,67.30
2023-04-07T20:20:11.139Z,67.10
2023-04-07T20:22:38.940Z,67.20
2023-04-07T20:25:07.682Z,67.00
2023-04-07T20:27:35.453Z,67.00
2023-04-07T20:30:03.412Z,67.00
2023-04-07T20:32:31.370Z,67.10
2023-04-07T20:34:58.952Z,66.80
2023-04-07T20:37:26.917Z,66.80
2023-04-07T20:39:55.909Z,67.00
2023-04-07T20:42:23.464Z,67.10
2023-04-07T20:44:50.907Z,67.80
2023-04-07T20:47:18.825Z,68.10
2023-04-07T20:49:47.395Z,68.20
2023-04-07T20:52:15.178Z,68.50
2023-04-07T20:54:44.637Z,68.70
2023-04-07T20:57:12.246Z,68.70
2023-04-07T20:59:40.551Z,69.00
2023-04-07T21:02:08.127Z,69.60
2023-04-07T21:04:35.699Z,69.70
2023-04-07T21:07:03.438Z,69.80
2023-04-07T21:09:31.547Z,69.90
2023-04-07T21:11:59.011Z,70.10
2023-04-07T21:14:27.009Z,70.10
2023-04-07T21:16:55.842Z,70.00
2023-04-07T21:19:23.301Z,70.50
2023-04-07T21:21:51.216Z,70.80
2023-04-07T21:24:19.127Z,71.00
2023-04-07T21:26:46.599Z,71.30
2023-04-07T21:29:14.453Z,71.50
2023-04-07T21:31:43.742Z,71.60
2023-04-07T21:34:11.622Z,74.30
2023-04-07T21:36:41.758Z,75.10
2023-04-07T21:39:09.692Z,73.10
2023-04-07T21:41:37.445Z,73.10
2023-04-07T21:44:09.235Z,73.40
2023-04-07T21:46:39.700Z,73.60
2023-04-07T21:49:07.381Z,73.90
2023-04-07T21:51:34.982Z,74.00
2023-04-07T21:54:03.331Z,74.30
2023-04-07T21:56:31.148Z,74.30
2023-04-07T21:58:59.329Z,74.20
2023-04-07T22:01:27.396Z,74.40
2023-04-07T22:03:55.352Z,74.30
2023-04-07T22:06:22.805Z,74.60
2023-04-07T22:09:00.661Z,74.70
2023-04-07T22:11:20.263Z,74.50
2023-04-07T22:13:48.260Z,74.40
2023-04-07T22:16:16.334Z,74.80
2023-04-07T22:18:44.220Z,75.20
2023-04-07T22:21:14.539Z,75.40
2023-04-07T22:23:42.157Z,75.50
2023-04-07T22:26:10.556Z,75.60
2023-04-07T22:28:48.107Z,75.50
2023-04-07T22:31:16.482Z,75.50
2023-04-07T22:33:44.208Z,76.10
2023-04-07T22:36:12.385Z,75.90
2023-04-07T22:38:40.312Z,75.70
2023-04-07T22:41:08.027Z,76.00
2023-04-07T22:43:35.806Z,76.10
2023-04-07T22:46:03.831Z,76.20
2023-04-07T22:48:37.483Z,76.40
2023-04-07T22:51:05.864Z,76.00
2023-04-07T22:53:33.692Z,75.70
2023-04-07T22:56:01.803Z,75.90
2023-04-07T22:58:30.533Z,76.10
2023-04-07T23:00:59.015Z,75.80
2023-04-07T23:03:26.832Z,76.00
2023-04-07T23:05:55.324Z,76.30
2023-04-07T23:08:26.471Z,76.70
2023-04-07T23:10:54.057Z,76.90
2023-04-07T23:13:21.925Z,77.10
2023-04-07T23:15:50.086Z,77.10
2023-04-07T23:18:17.875Z,77.40
2023-04-07T23:20:54.957Z,77.70
2023-04-07T23:23:23.211Z,77.70
2023-04-07T23:25:51.287Z,77.90
2023-04-07T23:28:18.998Z,78.00
2023-04-07T23:30:50.040Z,78.20
2023-04-07T23:33:17.789Z,78.30
2023-04-07T23:35:45.855Z,78.30
2023-04-07T23:38:13.826Z,78.40
2023-04-07T23:40:41.381Z,78.80
2023-04-07T23:43:09.473Z,79.00
2023-04-07T23:45:37.844Z,79.00
2023-04-07T23:48:05.682Z,79.20
2023-04-07T23:50:34.797Z,79.40
2023-04-07T23:53:03.265Z,79.80
2023-04-07T23:55:50.081Z,80.10
2023-04-07T23:58:18.057Z,80.60
